createdAt,value
2024-04-23T00:00:44.347Z,45.16
2024-04-23T00:01:44.373Z,45.84
2024-04-23T00:02:44.407Z,43.83
2024-04-23T00:03:44.322Z,44.31
2024-04-23T00:04:44.337Z,43.44
2024-04-23T00:05:44.278Z,43.79
2024-04-23T00:06:44.267Z,43.50
2024-04-23T00:07:44.307Z,43.90
2024-04-23T00:08:44.261Z,43.17
2024-04-23T00:09:44.261Z,42.87
2024-04-23T00:10:44.270Z,44.49
2024-04-23T00:11:44.254Z,44.90
2024-04-23T00:12:44.244Z,44.20
2024-04-23T00:13:44.227Z,44.23
2024-04-23T00:14:44.198Z,45.47
2024-04-23T00:15:44.181Z,44.16
2024-04-23T00:16:44.196Z,43.29
2024-04-23T00:17:44.294Z,43.97
2024-04-23T00:18:44.201Z,45.66
2024-04-23T00:19:44.198Z,46.85
2024-04-23T00:20:44.143Z,45.89
2024-04-23T00:21:44.130Z,45.07
2024-04-23T00:22:44.185Z,43.56
2024-04-23T00:23:44.111Z,44.47
2024-04-23T00:24:44.082Z,43.55
2024-04-23T00:25:44.097Z,43.91
2024-04-23T00:26:44.075Z,44.05
2024-04-23T00:27:44.051Z,44.72
2024-04-23T00:28:44.084Z,44.63
2024-04-23T00:29:44.030Z,44.10
2024-04-23T00:30:44.048Z,43.80
2024-04-23T00:31:44.063Z,43.72
2024-04-23T00:32:44.052Z,43.86
2024-04-23T00:33:43.999Z,45.08
2024-04-23T00:34:44.032Z,45.58
2024-04-23T00:35:43.980Z,44.68
2024-04-23T00:36:43.970Z,45.10
2024-04-23T00:37:43.973Z,45.63
2024-04-23T00:38:43.998Z,44.93
2024-04-23T00:39:43.939Z,43.78
2024-04-23T00:40:44.046Z,43.95
2024-04-23T00:41:43.911Z,44.52
2024-04-23T00:42:43.911Z,45.12
2024-04-23T00:43:43.954Z,44.95
2024-04-23T00:44:43.899Z,44.72
2024-04-23T00:45:43.908Z,43.80
2024-04-23T00:46:43.917Z,43.97
2024-04-23T00:47:43.950Z,43.47
2024-04-23T00:48:43.853Z,44.04
2024-04-23T00:49:43.939Z,44.31
2024-04-23T00:50:43.816Z,43.99
2024-04-23T00:51:43.804Z,45.01
2024-04-23T00:52:43.803Z,44.61
2024-04-23T00:53:43.832Z,45.96
2024-04-23T00:54:43.793Z,46.00
2024-04-23T00:55:43.823Z,45.82
2024-04-23T00:56:43.760Z,45.80
2024-04-23T00:57:43.750Z,45.38
2024-04-23T00:58:44.000Z,45.35
2024-04-23T00:59:43.747Z,49.20
2024-04-23T01:00:43.735Z,46.54
2024-04-23T01:01:43.755Z,48.43
2024-04-23T01:02:43.756Z,47.06
2024-04-23T01:03:43.743Z,45.41
2024-04-23T01:04:43.693Z,44.33
2024-04-23T01:05:43.677Z,44.46
2024-04-23T01:06:43.650Z,44.78
2024-04-23T01:07:43.677Z,45.57
2024-04-23T01:08:43.653Z,44.76
2024-04-23T01:09:43.641Z,45.37
2024-04-23T01:10:43.662Z,44.62
2024-04-23T01:11:43.631Z,44.42
2024-04-23T01:12:43.594Z,44.15
2024-04-23T01:13:43.634Z,44.64
2024-04-23T01:14:43.581Z,44.93
2024-04-23T01:15:43.579Z,44.20
2024-04-23T01:16:43.582Z,44.62
2024-04-23T01:17:43.616Z,44.12
2024-04-23T01:18:43.547Z,43.84
2024-04-23T01:19:43.562Z,44.10
2024-04-23T01:20:43.515Z,43.43
2024-04-23T01:21:43.508Z,43.37
2024-04-23T01:22:43.537Z,43.26
2024-04-23T01:23:43.500Z,44.04
2024-04-23T01:24:43.472Z,46.70
2024-04-23T01:25:43.526Z,44.10
2024-04-23T01:26:43.457Z,43.72
2024-04-23T01:27:43.452Z,43.70
2024-04-23T01:28:43.489Z,43.49
2024-04-23T01:29:43.433Z,43.19
2024-04-23T01:30:43.408Z,43.51
2024-04-23T01:31:43.490Z,46.02
2024-04-23T01:32:43.470Z,44.69
2024-04-23T01:33:43.489Z,45.73
2024-04-23T01:34:43.417Z,46.51
2024-04-23T01:35:43.372Z,45.56
2024-04-23T01:36:43.367Z,44.38
2024-04-23T01:37:43.367Z,44.36
2024-04-23T01:38:43.344Z,44.94
2024-04-23T01:39:43.337Z,44.23
2024-04-23T01:40:43.345Z,44.09
2024-04-23T01:41:43.318Z,44.42
2024-04-23T01:42:43.301Z,44.76
2024-04-23T01:43:43.312Z,47.22
2024-04-23T01:44:43.285Z,45.53
2024-04-23T01:45:43.266Z,48.67
2024-04-23T01:46:43.301Z,45.52
2024-04-23T01:47:43.314Z,45.10
2024-04-23T01:48:43.241Z,44.88
2024-04-23T01:49:43.241Z,44.76
2024-04-23T01:50:43.237Z,45.68
2024-04-23T01:51:43.229Z,45.08
2024-04-23T01:52:43.236Z,44.52
2024-04-23T01:53:43.184Z,44.03
2024-04-23T01:54:43.174Z,44.52
2024-04-23T01:55:43.230Z,46.47
2024-04-23T01:56:43.161Z,46.34
2024-04-23T01:57:43.144Z,44.55
2024-04-23T01:58:43.201Z,44.78
2024-04-23T01:59:43.121Z,44.52
2024-04-23T02:00:43.131Z,45.27
2024-04-23T02:01:43.190Z,44.98
2024-04-23T02:02:43.129Z,44.20
2024-04-23T02:03:43.151Z,44.33
2024-04-23T02:04:43.098Z,42.79
2024-04-23T02:05:43.074Z,44.05
2024-04-23T02:06:43.057Z,45.29
2024-04-23T02:07:43.085Z,45.41
2024-04-23T02:08:43.026Z,45.05
2024-04-23T02:09:43.037Z,46.19
2024-04-23T02:10:43.077Z,47.48
2024-04-23T02:11:43.079Z,47.37
2024-04-23T02:12:42.995Z,46.92
2024-04-23T02:13:43.027Z,45.38
2024-04-23T02:14:42.985Z,44.24
2024-04-23T02:15:42.978Z,44.14
2024-04-23T02:16:42.950Z,44.99
2024-04-23T02:17:43.058Z,49.70
2024-04-23T02:18:42.974Z,45.04
2024-04-23T02:19:42.976Z,46.05
2024-04-23T02:20:42.922Z,45.21
2024-04-23T02:21:42.902Z,48.18
2024-04-23T02:22:42.946Z,45.93
2024-04-23T02:23:42.890Z,45.87
2024-04-23T02:24:42.888Z,45.31
2024-04-23T02:25:42.875Z,45.24
2024-04-23T02:26:42.864Z,45.29
2024-04-23T02:27:42.856Z,47.54
2024-04-23T02:28:42.866Z,46.49
2024-04-23T02:29:42.853Z,46.79
2024-04-23T02:30:42.820Z,47.07
2024-04-23T02:31:42.847Z,47.31
2024-04-23T02:32:42.908Z,46.95
2024-04-23T02:33:43.003Z,46.75
2024-04-23T02:34:42.840Z,51.60
2024-04-23T02:35:42.761Z,47.89
2024-04-23T02:36:42.756Z,47.82
2024-04-23T02:37:42.806Z,48.53
2024-04-23T02:38:42.785Z,50.04
2024-04-23T02:39:42.743Z,48.35
2024-04-23T02:40:42.742Z,48.20
2024-04-23T02:41:42.710Z,48.11
2024-04-23T02:42:42.707Z,48.37
2024-04-23T02:43:42.721Z,48.59
2024-04-23T02:44:42.678Z,48.08
2024-04-23T02:45:42.668Z,48.31
2024-04-23T02:46:42.696Z,46.26
2024-04-23T02:47:42.754Z,47.31
2024-04-23T02:48:42.648Z,48.63
2024-04-23T02:49:42.698Z,46.04
2024-04-23T02:50:42.618Z,45.87
2024-04-23T02:51:42.613Z,47.57
2024-04-23T02:52:42.640Z,46.44
2024-04-23T02:53:42.591Z,45.53
2024-04-23T02:54:42.583Z,46.40
2024-04-23T02:55:42.608Z,44.86
2024-04-23T02:56:42.572Z,45.39
2024-04-23T02:57:42.570Z,45.67
2024-04-23T02:58:42.555Z,45.21
2024-04-23T02:59:42.533Z,45.66
2024-04-23T03:00:42.535Z,44.61
2024-04-23T03:01:42.576Z,43.78
2024-04-23T03:02:42.613Z,45.84
2024-04-23T03:03:42.571Z,46.48
2024-04-23T03:04:42.519Z,45.87
2024-04-23T03:05:42.484Z,47.83
2024-04-23T03:06:42.474Z,48.35
2024-04-23T03:07:42.474Z,47.15
2024-04-23T03:08:42.448Z,46.87
2024-04-23T03:09:42.435Z,46.94
2024-04-23T03:10:42.538Z,47.78
2024-04-23T03:11:42.503Z,46.80
2024-04-23T03:12:42.414Z,49.67
2024-04-23T03:13:42.422Z,49.55
2024-04-23T03:14:42.381Z,50.06
2024-04-23T03:15:42.390Z,48.39
2024-04-23T03:16:42.401Z,49.19
2024-04-23T03:17:42.428Z,51.93
2024-04-23T03:18:42.407Z,49.07
2024-04-23T03:19:42.389Z,49.31
2024-04-23T03:20:42.344Z,50.56
2024-04-23T03:21:42.318Z,52.85
2024-04-23T03:22:42.325Z,51.13
2024-04-23T03:23:42.295Z,49.73
2024-04-23T03:24:42.312Z,52.12
2024-04-23T03:25:42.353Z,55.32
2024-04-23T03:26:42.279Z,54.92
2024-04-23T03:27:42.255Z,53.63
2024-04-23T03:28:42.298Z,52.83
2024-04-23T03:29:42.247Z,53.91
2024-04-23T03:30:42.236Z,49.22
2024-04-23T03:31:42.290Z,51.56
2024-04-23T03:32:42.215Z,49.48
2024-04-23T03:33:42.190Z,53.24
2024-04-23T03:34:42.226Z,50.67
2024-04-23T03:35:42.175Z,51.50
2024-04-23T03:36:42.160Z,51.09
2024-04-23T03:37:42.210Z,53.66
2024-04-23T03:38:42.144Z,50.54
2024-04-23T03:39:42.158Z,49.72
2024-04-23T03:40:42.136Z,51.38
2024-04-23T03:41:42.108Z,52.15
2024-04-23T03:42:42.107Z,53.98
2024-04-23T03:43:42.125Z,54.14
2024-04-23T03:44:44.833Z,53.95
2024-04-23T03:45:42.080Z,48.71
2024-04-23T03:46:42.077Z,50.61
2024-04-23T03:47:42.148Z,53.97
2024-04-23T03:48:42.049Z,56.64
2024-04-23T03:49:42.079Z,55.08
2024-04-23T03:50:42.062Z,55.73
2024-04-23T03:51:42.005Z,52.64
2024-04-23T03:52:42.062Z,48.58
2024-04-23T03:53:42.101Z,51.51
2024-04-23T03:54:42.232Z,49.02
2024-04-23T03:55:42.115Z,49.62
2024-04-23T03:56:41.993Z,49.56
2024-04-23T03:57:42.070Z,48.17
2024-04-23T03:58:42.023Z,50.91
2024-04-23T03:59:41.934Z,51.77
2024-04-23T04:00:41.950Z,52.80
2024-04-23T04:01:42.016Z,48.55
2024-04-23T04:02:42.000Z,54.59
2024-04-23T04:03:41.936Z,52.12
2024-04-23T04:04:41.912Z,54.55
2024-04-23T04:05:41.872Z,54.28
2024-04-23T04:06:41.894Z,55.53
2024-04-23T04:07:41.875Z,52.12
2024-04-23T04:08:41.854Z,51.61
2024-04-23T04:09:41.830Z,50.63
2024-04-23T04:10:41.868Z,51.98
2024-04-23T04:11:41.945Z,48.72
2024-04-23T04:12:41.822Z,55.37
2024-04-23T04:13:42.115Z,55.52
2024-04-23T04:14:41.783Z,51.52
2024-04-23T04:15:41.769Z,53.65
2024-04-23T04:16:41.866Z,50.12
2024-04-23T04:17:42.262Z,51.76
2024-04-23T04:18:41.787Z,53.77
2024-04-23T04:19:41.759Z,53.39
2024-04-23T04:20:41.729Z,47.88
2024-04-23T04:21:41.726Z,54.21
2024-04-23T04:22:41.757Z,50.68
2024-04-23T04:23:41.702Z,51.18
2024-04-23T04:24:41.699Z,48.00
2024-04-23T04:25:41.688Z,48.38
2024-04-23T04:26:41.714Z,53.17
2024-04-23T04:27:41.670Z,48.27
2024-04-23T04:28:41.657Z,50.73
2024-04-23T04:29:41.636Z,50.08
2024-04-23T04:30:41.628Z,50.30
2024-04-23T04:31:41.702Z,50.20
2024-04-23T04:32:41.717Z,53.29
2024-04-23T21:42:47.868Z,39.72
2024-04-23T21:43:47.877Z,41.14
2024-04-23T21:44:47.845Z,47.08
2024-04-23T21:45:47.860Z,42.86
2024-04-23T21:46:47.843Z,42.81
2024-04-23T21:47:47.928Z,48.82
2024-04-23T21:48:47.889Z,41.35
2024-04-23T21:49:47.832Z,41.70
2024-04-23T21:50:47.791Z,41.86
2024-04-23T21:52:09.603Z,42.14
2024-04-23T21:52:48.769Z,42.71
2024-04-23T21:53:47.763Z,43.26
2024-04-23T21:54:47.753Z,43.91
2024-04-23T21:55:47.746Z,44.21
2024-04-23T21:56:47.713Z,44.75
2024-04-23T21:57:47.724Z,45.55
2024-04-23T21:58:47.731Z,45.48
2024-04-23T21:59:47.699Z,45.47
2024-04-23T22:00:47.731Z,45.53
2024-04-23T22:01:47.729Z,44.00
2024-04-23T22:02:47.763Z,44.15
2024-04-23T22:03:47.781Z,44.73
2024-04-23T22:04:47.667Z,42.41
2024-04-23T22:05:47.626Z,45.40
2024-04-23T22:06:47.614Z,42.87
2024-04-23T22:07:47.648Z,43.49
2024-04-23T22:08:48.721Z,42.80
2024-04-23T22:09:48.711Z,43.16
2024-04-23T22:10:48.751Z,46.99
2024-04-23T22:11:48.807Z,45.23
2024-04-23T22:12:48.688Z,43.95
2024-04-23T22:13:48.677Z,42.10
2024-04-23T22:14:48.655Z,45.20
2024-04-23T22:15:48.640Z,44.71
2024-04-23T22:16:48.711Z,43.34
2024-04-23T22:17:48.780Z,42.05
2024-04-23T22:18:48.710Z,41.73
2024-04-23T22:19:48.651Z,43.21
2024-04-23T22:20:48.593Z,44.17
2024-04-23T22:21:48.586Z,43.32
2024-04-23T22:22:48.609Z,42.18
2024-04-23T22:23:48.562Z,43.39
2024-04-23T22:24:48.553Z,43.10
2024-04-23T22:25:48.559Z,42.98
2024-04-23T22:26:48.530Z,42.74
2024-04-23T22:27:48.537Z,43.16
2024-04-23T22:28:48.563Z,43.39
2024-04-23T22:29:48.501Z,43.95
2024-04-23T22:30:48.498Z,43.68
2024-04-23T22:31:48.491Z,44.78
2024-04-23T22:32:49.511Z,45.36
2024-04-23T22:33:48.525Z,44.67
2024-04-23T22:34:48.493Z,44.31
2024-04-23T22:35:48.448Z,45.25
2024-04-23T22:36:48.442Z,43.05
2024-04-23T22:37:48.435Z,41.97
2024-04-23T22:38:49.414Z,43.21
2024-04-23T22:39:48.405Z,43.75
2024-04-23T22:40:48.438Z,41.97
2024-04-23T22:41:48.406Z,42.81
2024-04-23T22:42:48.369Z,44.55
2024-04-23T22:43:48.382Z,44.91
2024-04-23T22:44:48.349Z,46.20
2024-04-23T22:45:48.344Z,43.06
2024-04-23T22:46:48.349Z,44.33
2024-04-23T22:47:48.384Z,43.48
2024-04-23T22:48:48.442Z,44.71
2024-04-23T22:49:48.349Z,46.45
2024-04-23T22:50:48.305Z,46.26
2024-04-23T22:51:48.323Z,44.59
2024-04-23T22:52:48.296Z,46.99
2024-04-23T22:53:48.260Z,45.17
2024-04-23T22:54:48.246Z,44.52
2024-04-23T22:55:48.265Z,44.04
2024-04-23T22:56:48.241Z,46.47
2024-04-23T22:57:48.216Z,42.44
2024-04-23T22:58:48.220Z,44.76
2024-04-23T22:59:48.203Z,42.41
2024-04-23T23:00:48.191Z,46.85
2024-04-23T23:01:48.188Z,46.23
2024-04-23T23:02:48.286Z,45.45
2024-04-23T23:03:48.166Z,45.96
2024-04-23T23:04:48.185Z,46.02
2024-04-23T23:05:48.137Z,47.06
2024-04-23T23:06:48.154Z,44.32
2024-04-23T23:07:48.147Z,46.56
2024-04-23T23:08:48.110Z,44.37
2024-04-23T23:09:48.103Z,44.65
2024-04-23T23:10:48.189Z,44.45
2024-04-23T23:11:48.194Z,44.02
2024-04-23T23:12:48.061Z,44.18
2024-04-23T23:13:48.067Z,44.20
2024-04-23T23:14:48.050Z,43.74
2024-04-23T23:15:48.039Z,43.58
2024-04-23T23:16:48.086Z,44.64
2024-04-23T23:17:48.021Z,44.47
2024-04-23T23:18:47.996Z,45.72
2024-04-23T23:19:48.034Z,46.23
2024-04-23T23:20:47.991Z,45.84
2024-04-23T23:21:47.964Z,45.31
2024-04-23T23:22:50.093Z,44.46
2024-04-23T23:23:48.959Z,45.15
2024-04-23T23:24:47.980Z,44.44
2024-04-23T23:25:47.991Z,43.25
2024-04-23T23:26:47.920Z,43.40
2024-04-23T23:27:47.912Z,45.39
2024-04-23T23:28:47.919Z,44.63
2024-04-23T23:29:47.898Z,44.31
2024-04-23T23:30:47.876Z,44.76
2024-04-23T23:31:47.889Z,43.54
2024-04-23T23:32:47.977Z,43.08
2024-04-23T23:33:47.905Z,44.97
2024-04-23T23:34:47.883Z,46.19
2024-04-23T23:35:47.828Z,47.06
2024-04-23T23:36:47.818Z,45.67
2024-04-23T23:37:47.839Z,48.66
2024-04-23T23:38:47.816Z,42.67
2024-04-23T23:39:48.782Z,44.04
2024-04-23T23:40:47.836Z,46.71
2024-04-23T23:41:47.763Z,47.34
2024-04-23T23:42:47.772Z,45.31
2024-04-23T23:43:47.778Z,44.33
2024-04-23T23:44:47.733Z,46.02
2024-04-23T23:45:47.720Z,44.33
2024-04-23T23:46:47.794Z,46.44
2024-04-23T23:47:47.840Z,46.62
2024-04-23T23:48:47.733Z,46.55
2024-04-23T23:49:47.733Z,48.67
2024-04-23T23:50:47.687Z,46.72
2024-04-23T23:51:47.662Z,48.08
2024-04-23T23:52:47.685Z,45.65
2024-04-23T23:53:47.651Z,47.06
2024-04-23T23:54:47.654Z,46.46
2024-04-23T23:55:47.644Z,45.86
2024-04-23T23:56:47.617Z,49.44
2024-04-23T23:57:47.611Z,47.41
2024-04-23T23:58:47.631Z,47.46
2024-04-23T23:59:47.570Z,48.85
